Time;durP1;ratioP1;P1;durP2;ratioP2;P2;SDS_P1;SDS_P2;PMS_P1;PMS_P2;Temp;Humidity;BMP_temperature;BMP_pressure;BME280_temperature;BME280_humidity;BME280_pressure;Samples;Min_cycle;Max_cycle;Signal;HPM_P1;HPM_P2
2022/12/19 00:01:15;;;;;;;33.13;17.45;;;0.30;99.90;;;;;;5051062;28;20606;-45
2022/12/19 00:03:45;;;;;;;38.35;20.30;;;0.40;99.90;;;;;;5051391;28;20189;-43
2022/12/19 00:06:11;;;;;;;36.92;19.45;;;0.30;99.90;;;;;;5050928;28;20228;-44
2022/12/19 00:08:37;;;;;;;36.85;18.90;;;0.30;99.90;;;;;;5051258;28;20185;-43
2022/12/19 00:11:02;;;;;;;38.88;18.70;;;0.30;99.90;;;;;;5051646;28;20166;-45
2022/12/19 00:13:30;;;;;;;45.08;20.85;;;0.30;99.90;;;;;;5054612;28;20634;-43
2022/12/19 00:16:02;;;;;;;37.00;17.90;;;0.40;99.90;;;;;;5055184;28;20541;-43
2022/12/19 00:18:28;;;;;;;42.95;19.00;;;0.30;99.90;;;;;;5054661;28;20188;-48
2022/12/19 00:21:00;;;;;;;33.85;18.83;;;0.40;99.90;;;;;;5054813;28;20158;-44
2022/12/19 00:23:28;;;;;;;40.58;20.27;;;0.30;99.90;;;;;;5054742;28;20593;-44
2022/12/19 00:25:54;;;;;;;29.58;15.52;;;0.40;99.90;;;;;;5054707;28;20227;-43
2022/12/19 00:28:19;;;;;;;38.30;17.95;;;0.40;99.90;;;;;;5054374;28;20631;-43
2022/12/19 00:30:45;;;;;;;42.88;19.17;;;0.40;99.90;;;;;;5054277;28;20167;-42
2022/12/19 00:33:10;;;;;;;42.28;20.40;;;0.40;99.90;;;;;;5054147;28;20336;-42
2022/12/19 00:35:36;;;;;;;39.58;19.92;;;0.40;99.90;;;;;;5054151;28;20167;-42
2022/12/19 00:38:02;;;;;;;34.50;17.65;;;0.40;99.90;;;;;;5054115;28;20177;-42
2022/12/19 00:40:28;;;;;;;39.90;18.40;;;0.50;99.90;;;;;;5054408;28;20274;-42
2022/12/19 00:42:53;;;;;;;42.85;20.42;;;0.50;99.90;;;;;;5054450;28;20574;-43
2022/12/19 00:45:19;;;;;;;45.50;20.42;;;0.40;99.90;;;;;;5053936;28;20163;-43
2022/12/19 00:47:45;;;;;;;42.88;18.63;;;0.50;99.90;;;;;;5054165;28;20182;-42
2022/12/19 00:50:10;;;;;;;43.30;21.00;;;0.50;99.90;;;;;;5053932;28;20170;-42
2022/12/19 00:52:36;;;;;;;38.80;19.55;;;0.40;99.90;;;;;;5053762;28;20206;-43
2022/12/19 00:55:01;;;;;;;41.17;20.05;;;0.40;99.90;;;;;;5053854;28;20225;-43
2022/12/19 00:57:27;;;;;;;38.30;18.15;;;0.40;99.90;;;;;;5053801;28;20178;-42
2022/12/19 00:59:53;;;;;;;36.15;17.35;;;0.50;99.90;;;;;;5054013;28;20220;-42
2022/12/19 01:02:18;;;;;;;38.40;18.45;;;0.50;99.90;;;;;;5053483;28;20241;-43
2022/12/19 01:04:45;;;;;;;41.55;18.88;;;0.50;99.90;;;;;;5053852;28;20221;-42
2022/12/19 01:07:10;;;;;;;35.47;17.05;;;0.50;99.90;;;;;;5053566;28;20578;-43
2022/12/19 01:09:36;;;;;;;41.30;18.15;;;0.50;99.90;;;;;;5053537;28;20657;-42
2022/12/19 01:14:48;;;;;;;38.13;17.88;;;0.60;99.90;;;;;;5053716;28;20177;-50
2022/12/19 01:17:13;;;;;;;41.35;19.38;;;0.60;99.90;;;;;;5053673;28;20574;-51
2022/12/19 01:19:39;;;;;;;42.25;18.75;;;0.60;99.90;;;;;;5053371;28;20534;-52
2022/12/19 01:22:04;;;;;;;32.42;17.95;;;0.60;99.90;;;;;;5053155;28;20167;-52
2022/12/19 01:24:30;;;;;;;38.40;19.77;;;0.70;99.90;;;;;;5053414;28;20170;-52
2022/12/19 01:26:56;;;;;;;36.35;19.02;;;0.70;99.90;;;;;;5053325;28;20170;-46
2022/12/19 01:29:21;;;;;;;42.75;19.92;;;0.60;99.90;;;;;;5053491;28;20270;-52
2022/12/19 01:31:47;;;;;;;41.85;20.00;;;0.60;99.90;;;;;;5053070;28;20210;-50
2022/12/19 01:34:12;;;;;;;41.38;18.70;;;0.80;99.90;;;;;;5053336;28;20198;-51
2022/12/19 01:36:38;;;;;;;38.00;20.52;;;0.70;99.90;;;;;;5053046;28;20257;-51
2022/12/19 01:39:04;;;;;;;44.75;19.73;;;0.70;99.90;;;;;;5052991;28;20167;-53
2022/12/19 01:41:29;;;;;;;45.05;19.55;;;0.80;99.90;;;;;;5052894;28;20167;-51
2022/12/19 01:44:05;;;;;;;41.70;20.33;;;0.70;99.90;;;;;;5053230;28;20173;-50
2022/12/19 01:46:41;;;;;;;43.65;19.38;;;0.80;99.90;;;;;;5052903;28;20209;-52
2022/12/19 01:49:30;;;;;;;40.90;20.25;;;0.90;99.90;;;;;;5053094;28;20171;-52
2022/12/19 01:51:59;;;;;;;39.63;18.83;;;0.80;99.90;;;;;;5052698;28;20202;-43
2022/12/19 01:54:32;;;;;;;41.03;20.20;;;0.90;99.90;;;;;;5053327;28;20498;-42
2022/12/19 01:56:58;;;;;;;35.58;18.65;;;0.80;99.90;;;;;;5052674;28;20669;-45
2022/12/19 01:59:40;;;;;;;39.83;18.92;;;0.90;99.90;;;;;;5053033;28;20171;-45
2022/12/19 02:02:13;;;;;;;40.13;19.00;;;0.90;99.90;;;;;;5052424;28;20297;-43
2022/12/19 02:04:40;;;;;;;40.53;19.05;;;0.80;99.90;;;;;;5052626;28;20547;-43
2022/12/19 02:07:07;;;;;;;38.47;18.70;;;0.90;99.90;;;;;;5052759;28;20198;-43
2022/12/19 02:09:34;;;;;;;40.17;19.38;;;0.90;99.90;;;;;;5052493;28;20182;-43
2022/12/19 02:12:00;;;;;;;41.42;19.95;;;0.90;99.90;;;;;;5052321;28;20206;-43
2022/12/19 02:14:27;;;;;;;44.25;19.77;;;1.00;99.90;;;;;;5052400;28;20653;-42
2022/12/19 02:17:19;;;;;;;42.85;20.58;;;0.90;99.90;;;;;;5052708;28;20175;-42
2022/12/19 02:20:06;;;;;;;52.05;20.95;;;1.00;99.90;;;;;;5052397;28;20563;-43
2022/12/19 02:22:53;;;;;;;40.78;20.27;;;1.00;99.90;;;;;;5051747;28;20162;-43
2022/12/19 02:25:48;;;;;;;38.20;20.17;;;1.00;99.90;;;;;;5052234;28;20539;-43
2022/12/19 02:28:57;;;;;;;35.47;17.92;;;1.00;99.90;;;;;;5050700;28;20173;-42
2022/12/19 02:31:30;;;;;;;33.15;15.32;;;1.00;99.90;;;;;;5052325;28;20654;-43
2022/12/19 02:34:32;;;;;;;37.35;19.77;;;1.00;99.90;;;;;;5051616;28;20639;-43
2022/12/19 02:37:06;;;;;;;36.92;17.52;;;1.00;99.90;;;;;;5051933;28;20634;-42
2022/12/19 02:39:44;;;;;;;38.90;18.45;;;1.00;99.90;;;;;;5052066;28;20176;-43
2022/12/19 02:42:15;;;;;;;46.03;19.45;;;1.00;99.90;;;;;;5052130;28;20166;-44
2022/12/19 02:44:50;;;;;;;33.90;16.55;;;1.10;99.90;;;;;;5051830;28;20221;-49
2022/12/19 02:47:17;;;;;;;38.63;19.13;;;1.10;99.90;;;;;;5052031;28;20162;-51
2022/12/19 02:49:43;;;;;;;40.30;19.75;;;1.00;99.90;;;;;;5050473;28;20539;-52
2022/12/19 02:52:31;;;;;;;44.30;19.85;;;1.10;99.90;;;;;;5051644;28;20202;-51
2022/12/19 02:55:14;;;;;;;41.30;19.05;;;1.00;99.90;;;;;;5051547;28;20171;-50
2022/12/19 02:58:00;;;;;;;41.00;18.83;;;1.10;99.90;;;;;;5051816;28;20232;-43
2022/12/19 03:00:29;;;;;;;40.80;19.00;;;1.10;99.90;;;;;;5047683;28;20281;-42
2022/12/19 03:03:03;;;;;;;35.10;17.33;;;1.10;99.90;;;;;;5051890;28;20210;-43
2022/12/19 03:05:56;;;;;;;37.53;18.45;;;1.20;99.90;;;;;;5051608;28;20601;-43
2022/12/19 03:08:43;;;;;;;35.67;16.27;;;1.10;99.90;;;;;;5052079;28;20232;-43
2022/12/19 03:11:13;;;;;;;39.08;19.95;;;1.20;99.90;;;;;;5051458;28;20226;-49
2022/12/19 03:13:56;;;;;;;38.38;19.02;;;1.20;99.90;;;;;;5051811;28;20581;-52
2022/12/19 03:16:23;;;;;;;35.08;16.88;;;1.10;99.90;;;;;;5051871;28;20177;-52
2022/12/19 03:18:49;;;;;;;42.58;18.90;;;1.20;99.90;;;;;;5051797;28;20221;-52
2022/12/19 03:21:25;;;;;;;34.20;18.05;;;1.20;99.90;;;;;;5051472;28;20208;-42
2022/12/19 03:23:53;;;;;;;38.35;18.27;;;1.20;99.90;;;;;;5051842;28;20170;-44
2022/12/19 03:26:22;;;;;;;37.25;17.35;;;1.20;99.90;;;;;;5051376;28;20198;-42
2022/12/19 03:28:57;;;;;;;40.40;18.67;;;1.20;99.90;;;;;;5051412;28;20254;-44
2022/12/19 03:31:26;;;;;;;37.50;18.60;;;1.20;99.90;;;;;;5051659;28;20198;-52
2022/12/19 03:34:27;;;;;;;42.42;20.67;;;1.30;99.90;;;;;;5051747;28;20249;-46
2022/12/19 03:36:58;;;;;;;41.10;19.33;;;1.30;99.90;;;;;;5048056;28;20240;-49
2022/12/19 03:39:26;;;;;;;34.22;16.95;;;1.30;99.90;;;;;;5051653;28;20570;-47
2022/12/19 03:44:41;;;;;;;39.85;19.15;;;1.30;99.90;;;;;;5051284;28;20640;-50
2022/12/19 03:47:32;;;;;;;41.35;20.23;;;1.30;99.90;;;;;;5053477;28;20170;-48
2022/12/19 03:49:58;;;;;;;40.42;20.05;;;1.30;99.90;;;;;;5052336;28;20178;-48
2022/12/19 03:52:26;;;;;;;37.78;18.73;;;1.20;99.90;;;;;;5055386;28;20286;-43
2022/12/19 03:55:05;;;;;;;42.40;20.27;;;1.20;99.90;;;;;;5055332;28;20212;-44
2022/12/19 03:57:38;;;;;;;39.28;19.83;;;1.30;99.90;;;;;;5054879;28;20225;-46
2022/12/19 04:00:07;;;;;;;35.55;19.35;;;1.20;99.90;;;;;;5054823;28;20170;-48
2022/12/19 04:02:38;;;;;;;43.85;21.05;;;1.30;99.90;;;;;;5054444;28;20231;-52
2022/12/19 04:05:09;;;;;;;43.50;19.63;;;1.20;99.90;;;;;;5054264;28;20258;-50
2022/12/19 04:07:37;;;;;;;42.78;19.08;;;1.20;99.90;;;;;;5054863;28;20170;-49
2022/12/19 04:10:09;;;;;;;37.95;18.77;;;1.40;99.90;;;;;;5054709;28;20170;-49
2022/12/19 04:12:39;;;;;;;42.53;20.77;;;1.30;99.90;;;;;;5054400;28;20240;-49
2022/12/19 04:15:06;;;;;;;40.97;20.95;;;1.40;99.90;;;;;;5054620;28;20154;-52
2022/12/19 04:17:47;;;;;;;42.38;19.52;;;1.30;99.90;;;;;;5053278;28;20182;-50
2022/12/19 04:20:15;;;;;;;43.63;21.05;;;1.30;99.90;;;;;;5054767;28;20175;-52
2022/12/19 04:23:11;;;;;;;44.50;22.05;;;1.40;99.90;;;;;;5054486;28;20163;-47
2022/12/19 04:25:40;;;;;;;39.13;20.70;;;1.40;99.90;;;;;;5046133;28;20179;-52
2022/12/19 04:28:17;;;;;;;42.13;20.77;;;1.40;99.90;;;;;;5054872;28;20518;-53
2022/12/19 04:30:44;;;;;;;45.83;21.05;;;1.40;99.90;;;;;;5053005;28;20171;-52
2022/12/19 04:33:09;;;;;;;48.65;20.85;;;1.50;99.90;;;;;;5054111;28;20213;-53
2022/12/19 04:35:35;;;;;;;45.38;22.10;;;1.50;99.90;;;;;;5054194;28;20159;-53
2022/12/19 04:38:01;;;;;;;46.20;21.95;;;1.40;99.90;;;;;;5053877;28;20174;-52
2022/12/19 04:40:27;;;;;;;42.17;20.17;;;1.50;99.90;;;;;;5053979;28;20163;-43
2022/12/19 04:42:52;;;;;;;39.78;19.77;;;1.40;99.90;;;;;;5054274;28;20220;-45
2022/12/19 04:45:18;;;;;;;42.50;20.85;;;1.50;99.90;;;;;;5053874;28;20167;-53
2022/12/19 04:47:44;;;;;;;48.42;21.83;;;1.60;99.90;;;;;;5054250;28;20274;-53
2022/12/19 04:50:09;;;;;;;46.60;22.25;;;1.50;99.90;;;;;;5053861;28;20175;-50
2022/12/19 04:52:35;;;;;;;44.35;19.98;;;1.50;99.90;;;;;;5052572;28;20210;-53
2022/12/19 04:55:00;;;;;;;45.83;22.25;;;1.60;99.90;;;;;;5053882;28;20162;-45
2022/12/19 04:57:30;;;;;;;42.15;20.15;;;1.60;99.90;;;;;;5053317;28;20228;-52
2022/12/19 04:59:56;;;;;;;44.28;21.17;;;1.70;99.90;;;;;;5053742;28;20155;-50
2022/12/19 05:02:22;;;;;;;45.17;22.20;;;1.70;99.90;;;;;;5053949;28;20239;-43
2022/12/19 05:04:48;;;;;;;46.53;19.45;;;1.60;99.90;;;;;;5053719;28;20503;-43
2022/12/19 05:07:14;;;;;;;41.85;20.90;;;1.60;99.90;;;;;;5053648;28;20169;-43
2022/12/19 05:09:39;;;;;;;43.65;21.85;;;1.70;99.90;;;;;;5053928;28;20176;-49
2022/12/19 05:12:05;;;;;;;53.85;22.95;;;1.60;99.90;;;;;;5053503;28;20566;-46
2022/12/19 05:14:31;;;;;;;49.22;24.05;;;1.60;99.90;;;;;;5053435;28;20638;-45
2022/12/19 05:16:57;;;;;;;42.80;21.25;;;1.60;99.90;;;;;;5053379;28;20589;-45
2022/12/19 05:19:23;;;;;;;45.45;20.85;;;1.60;99.90;;;;;;5053793;28;20242;-43
2022/12/19 05:21:48;;;;;;;42.10;20.88;;;1.70;99.90;;;;;;5053313;28;20684;-52
2022/12/19 05:24:15;;;;;;;44.50;21.50;;;1.80;99.90;;;;;;5053329;28;20633;-53
2022/12/19 05:26:40;;;;;;;44.72;21.50;;;1.80;99.90;;;;;;5053342;28;20159;-53
2022/12/19 05:29:07;;;;;;;48.13;21.70;;;1.70;99.90;;;;;;5053493;28;20225;-53
2022/12/19 05:31:33;;;;;;;44.47;21.15;;;1.70;99.90;;;;;;5053316;28;20234;-52
2022/12/19 05:33:58;;;;;;;43.40;22.10;;;1.70;99.90;;;;;;5053109;28;20212;-52
2022/12/19 05:36:24;;;;;;;45.35;22.20;;;1.70;99.90;;;;;;5053225;28;20178;-43
2022/12/19 05:38:50;;;;;;;47.78;22.40;;;1.80;99.90;;;;;;5053291;28;20178;-52
2022/12/19 05:41:18;;;;;;;51.67;23.27;;;1.70;99.90;;;;;;5052964;28;20175;-52
2022/12/19 05:43:47;;;;;;;43.47;20.67;;;1.90;99.90;;;;;;5052533;28;20186;-51
2022/12/19 05:46:13;;;;;;;47.13;21.38;;;1.90;99.90;;;;;;5051378;28;20170;-51
2022/12/19 05:48:39;;;;;;;44.58;22.20;;;1.90;99.90;;;;;;5052505;28;20531;-52
2022/12/19 05:51:05;;;;;;;46.03;21.63;;;1.90;99.90;;;;;;5052907;28;20193;-52
2022/12/19 05:53:30;;;;;;;44.03;21.98;;;1.90;99.90;;;;;;5052670;28;20540;-51
2022/12/19 05:56:09;;;;;;;45.80;21.52;;;2.00;99.90;;;;;;5052587;28;20159;-49
2022/12/19 05:58:36;;;;;;;49.03;20.75;;;2.00;99.90;;;;;;5052547;28;20181;-52
2022/12/19 06:01:03;;;;;;;46.00;21.85;;;2.00;99.90;;;;;;5052559;28;20225;-44
2022/12/19 06:03:29;;;;;;;45.38;21.77;;;1.90;99.90;;;;;;5052777;28;20535;-50
2022/12/19 06:05:55;;;;;;;43.75;21.92;;;1.90;99.90;;;;;;5052356;28;20166;-52
2022/12/19 06:08:21;;;;;;;46.05;21.98;;;1.90;99.90;;;;;;5052592;28;20175;-50
2022/12/19 06:10:47;;;;;;;51.38;23.27;;;1.90;99.90;;;;;;5051837;28;20174;-49
2022/12/19 06:13:12;;;;;;;42.08;20.83;;;2.00;99.90;;;;;;5052093;28;20202;-51
2022/12/19 06:15:38;;;;;;;50.85;24.52;;;2.00;99.90;;;;;;5052333;28;20229;-49
2022/12/19 06:18:03;;;;;;;42.60;21.55;;;1.90;99.90;;;;;;5052293;28;20220;-50
2022/12/19 06:20:29;;;;;;;48.83;20.60;;;2.00;99.90;;;;;;5052160;28;20177;-42
2022/12/19 06:22:54;;;;;;;43.50;19.83;;;2.10;99.90;;;;;;5052300;28;20212;-43
2022/12/19 06:25:20;;;;;;;47.92;21.20;;;2.00;99.90;;;;;;5052613;28;20170;-43
2022/12/19 06:27:45;;;;;;;44.67;21.92;;;2.10;99.90;;;;;;5052034;28;20539;-46
2022/12/19 06:30:11;;;;;;;49.35;23.02;;;2.10;99.90;;;;;;5051995;28;20532;-43
2022/12/19 06:32:37;;;;;;;46.60;21.50;;;2.20;99.90;;;;;;5052193;28;20264;-42
2022/12/19 06:35:02;;;;;;;51.80;23.00;;;2.10;99.90;;;;;;5051886;28;20158;-43
2022/12/19 06:37:28;;;;;;;45.83;22.17;;;2.10;99.90;;;;;;5051893;28;20253;-42
2022/12/19 06:39:53;;;;;;;41.63;21.08;;;2.30;99.90;;;;;;5051916;28;20167;-44
2022/12/19 06:42:22;;;;;;;60.22;25.38;;;2.30;99.90;;;;;;5052059;28;20592;-43
2022/12/19 06:44:52;;;;;;;55.50;24.30;;;4.90;99.90;;;;;;5051398;28;20190;-43
2022/12/19 06:47:18;;;;;;;51.15;22.10;;;2.30;99.90;;;;;;5051489;28;20715;-53
2022/12/19 06:49:47;;;;;;;48.58;21.55;;;2.40;99.90;;;;;;5051517;28;20163;-47
2022/12/19 06:52:13;;;;;;;50.20;22.48;;;2.40;99.90;;;;;;5051818;28;20210;-45
2022/12/19 06:54:40;;;;;;;49.67;24.15;;;2.40;99.90;;;;;;5051682;28;20634;-48
2022/12/19 06:57:06;;;;;;;45.33;22.85;;;2.40;99.90;;;;;;5051902;28;20181;-49
2022/12/19 06:59:32;;;;;;;45.58;21.55;;;2.30;99.90;;;;;;5051895;28;20174;-52
2022/12/19 07:02:13;;;;;;;43.67;22.48;;;2.40;99.90;;;;;;5051511;28;20226;-53
2022/12/19 07:04:43;;;;;;;41.05;21.13;;;2.50;99.90;;;;;;5051616;28;20220;-50
2022/12/19 07:07:09;;;;;;;46.53;21.25;;;2.50;99.90;;;;;;5051609;28;20163;-51
2022/12/19 07:09:35;;;;;;;45.60;20.55;;;2.50;99.90;;;;;;5051493;28;20599;-52
2022/12/19 07:12:01;;;;;;;49.70;22.45;;;2.40;99.90;;;;;;5051442;28;20248;-51
2022/12/19 07:14:27;;;;;;;46.45;22.33;;;2.60;99.90;;;;;;5051637;28;20179;-53
2022/12/19 07:16:54;;;;;;;50.58;21.80;;;2.50;99.90;;;;;;5051943;28;20247;-50
2022/12/19 07:19:21;;;;;;;53.22;24.48;;;2.50;99.90;;;;;;5051827;28;20167;-49
2022/12/19 07:21:47;;;;;;;44.92;22.80;;;2.60;99.90;;;;;;5054976;28;20170;-42
2022/12/19 07:24:13;;;;;;;56.95;22.88;;;2.70;99.90;;;;;;5055602;28;20158;-43
2022/12/19 07:26:41;;;;;;;45.42;21.23;;;2.60;99.90;;;;;;5055914;28;20308;-42
2022/12/19 07:29:07;;;;;;;46.63;22.20;;;2.70;99.90;;;;;;5055834;28;20224;-43
2022/12/19 07:31:33;;;;;;;46.22;20.90;;;2.70;99.90;;;;;;5055403;28;20191;-43
2022/12/19 07:33:58;;;;;;;40.72;20.98;;;2.80;99.90;;;;;;5055439;28;20185;-43
2022/12/19 07:36:24;;;;;;;61.45;24.17;;;2.70;99.90;;;;;;5055387;28;20212;-43
2022/12/19 07:38:50;;;;;;;42.05;20.70;;;2.70;99.90;;;;;;5055667;28;20174;-43
2022/12/19 07:41:16;;;;;;;50.55;23.17;;;2.80;99.90;;;;;;5055248;28;20661;-43
2022/12/19 07:43:41;;;;;;;48.05;21.23;;;2.70;99.90;;;;;;5055392;28;20266;-44
2022/12/19 07:46:07;;;;;;;38.88;20.10;;;2.80;99.90;;;;;;5055127;28;20245;-45
2022/12/19 07:48:32;;;;;;;43.80;20.63;;;2.90;99.90;;;;;;5055123;28;20193;-43
2022/12/19 07:50:58;;;;;;;40.35;20.90;;;3.00;99.90;;;;;;5055057;28;20167;-44
2022/12/19 07:53:24;;;;;;;51.67;22.30;;;3.00;99.90;;;;;;5054926;28;20213;-42
2022/12/19 07:55:50;;;;;;;46.38;21.58;;;3.00;99.90;;;;;;5055294;28;20159;-43
2022/12/19 07:58:16;;;;;;;41.97;21.73;;;2.90;99.90;;;;;;5055093;28;20258;-43
2022/12/19 08:00:41;;;;;;;46.92;20.77;;;3.00;99.90;;;;;;5054654;28;20253;-43
2022/12/19 08:03:07;;;;;;;49.95;21.65;;;3.10;99.90;;;;;;5054844;28;20178;-43
2022/12/19 08:05:33;;;;;;;52.17;22.75;;;3.00;99.90;;;;;;5054976;28;20170;-43
2022/12/19 08:07:59;;;;;;;50.53;21.92;;;3.00;99.90;;;;;;5054988;28;20174;-43
2022/12/19 08:10:24;;;;;;;50.65;21.70;;;3.10;99.90;;;;;;5054590;28;20535;-43
2022/12/19 08:12:50;;;;;;;52.53;22.75;;;3.00;99.90;;;;;;5054941;28;20211;-42
2022/12/19 08:15:15;;;;;;;45.17;21.10;;;3.20;99.90;;;;;;5054868;28;20216;-42
2022/12/19 08:17:41;;;;;;;45.72;21.48;;;3.20;99.90;;;;;;5054476;28;20573;-43
2022/12/19 08:20:08;;;;;;;47.22;21.70;;;3.30;99.90;;;;;;5054480;28;20501;-43
2022/12/19 08:22:33;;;;;;;47.55;21.02;;;3.30;99.90;;;;;;5054415;28;20206;-43
2022/12/19 08:24:59;;;;;;;52.03;22.13;;;3.20;99.90;;;;;;5054464;28;20194;-43
2022/12/19 08:27:25;;;;;;;43.20;21.50;;;3.30;99.90;;;;;;5054292;28;20170;-42
2022/12/19 08:29:51;;;;;;;39.70;20.20;;;3.30;99.90;;;;;;5054681;28;20175;-43
2022/12/19 08:32:17;;;;;;;46.95;20.88;;;3.40;99.90;;;;;;5053672;28;20336;-43
2022/12/19 08:34:42;;;;;;;47.28;20.63;;;3.30;99.90;;;;;;5054194;28;20775;-42
2022/12/19 08:37:09;;;;;;;62.00;25.17;;;3.30;99.90;;;;;;5054153;28;20170;-44
2022/12/19 08:39:35;;;;;;;50.85;22.92;;;3.50;99.90;;;;;;5054362;28;20261;-48
2022/12/19 08:42:01;;;;;;;44.20;21.70;;;3.50;99.90;;;;;;5053969;28;20201;-45
2022/12/19 08:44:26;;;;;;;58.53;26.85;;;3.40;99.90;;;;;;5054041;28;20262;-42
2022/12/19 08:46:52;;;;;;;37.72;17.83;;;3.50;99.90;;;;;;5054283;28;20629;-43
2022/12/19 08:49:18;;;;;;;42.80;20.60;;;3.30;99.90;;;;;;5053951;28;20170;-43
2022/12/19 08:51:44;;;;;;;49.15;22.27;;;3.40;99.90;;;;;;5053918;28;20194;-43
2022/12/19 08:54:11;;;;;;;47.17;21.38;;;3.50;99.90;;;;;;5053844;28;20185;-43
2022/12/19 08:56:36;;;;;;;46.40;23.55;;;3.50;99.90;;;;;;5054066;28;20175;-43
2022/12/19 08:59:02;;;;;;;41.25;19.80;;;3.50;99.90;;;;;;5052216;28;20679;-43
2022/12/19 09:01:28;;;;;;;42.17;21.83;;;3.50;99.90;;;;;;5051863;28;20251;-42
2022/12/19 09:03:57;;;;;;;36.67;20.05;;;3.60;99.90;;;;;;5051659;28;20581;-41
2022/12/19 09:06:23;;;;;;;43.10;20.17;;;3.60;99.90;;;;;;5051793;28;20265;-42
2022/12/19 09:08:48;;;;;;;48.45;21.15;;;3.70;99.90;;;;;;5052288;28;20703;-42
2022/12/19 09:11:17;;;;;;;42.88;20.77;;;3.70;99.90;;;;;;5051578;28;20171;-42
2022/12/19 09:13:43;;;;;;;46.45;21.35;;;3.80;99.90;;;;;;5051613;28;20630;-43
2022/12/19 09:16:22;;;;;;;47.25;21.83;;;3.80;99.90;;;;;;5051611;28;20174;-43
2022/12/19 09:18:50;;;;;;;45.95;22.70;;;3.80;99.90;;;;;;5051997;28;20196;-42
2022/12/19 09:21:17;;;;;;;48.38;21.58;;;3.90;99.90;;;;;;5051503;28;20249;-44
2022/12/19 09:23:54;;;;;;;44.88;21.52;;;3.90;99.90;;;;;;5051498;28;20166;-43
2022/12/19 09:26:22;;;;;;;34.42;19.40;;;3.90;99.90;;;;;;5051671;28;20194;-44
2022/12/19 09:28:47;;;;;;;46.17;21.27;;;3.80;99.90;;;;;;5051374;28;20159;-43
2022/12/19 09:31:16;;;;;;;45.00;20.70;;;4.00;99.90;;;;;;5051184;28;20173;-44
2022/12/19 09:33:42;;;;;;;35.33;19.23;;;3.80;99.90;;;;;;5051208;28;20175;-43
2022/12/19 09:36:11;;;;;;;36.83;18.45;;;4.00;99.90;;;;;;5051658;28;20167;-46
2022/12/19 09:38:37;;;;;;;33.28;16.13;;;4.00;99.90;;;;;;5051369;28;20167;-44
2022/12/19 09:41:06;;;;;;;42.85;19.83;;;4.00;99.90;;;;;;5051170;28;20428;-46
2022/12/19 09:43:43;;;;;;;42.17;21.25;;;4.10;99.90;;;;;;5050616;28;20190;-41
2022/12/19 09:46:18;;;;;;;37.40;19.02;;;4.10;99.90;;;;;;5051259;28;20166;-46
2022/12/19 09:48:52;;;;;;;44.15;20.85;;;4.00;99.90;;;;;;5051083;28;20166;-48
2022/12/19 09:51:25;;;;;;;39.88;20.48;;;4.10;99.90;;;;;;5051178;28;20638;-44
2022/12/19 09:54:08;;;;;;;35.10;19.17;;;4.20;99.90;;;;;;5051258;28;20254;-44
2022/12/19 09:56:38;;;;;;;38.28;19.40;;;4.10;99.90;;;;;;5050970;28;20159;-45
2022/12/19 09:59:23;;;;;;;33.17;17.70;;;4.10;99.90;;;;;;5050778;28;20174;-48
2022/12/19 10:02:03;;;;;;;42.20;20.08;;;4.10;99.90;;;;;;5051102;28;20211;-45
2022/12/19 10:04:33;;;;;;;36.05;20.60;;;4.20;99.90;;;;;;5050635;28;20170;-43
2022/12/19 10:06:58;;;;;;;32.72;17.27;;;4.10;99.90;;;;;;5050832;28;20190;-43
2022/12/19 10:09:31;;;;;;;31.88;17.77;;;4.20;99.90;;;;;;5050582;28;20559;-48
2022/12/19 10:12:12;;;;;;;35.95;19.30;;;4.10;99.90;;;;;;5050392;28;20198;-43
2022/12/19 10:14:54;;;;;;;37.50;17.85;;;4.10;99.90;;;;;;5050479;28;20257;-45
2022/12/19 10:17:44;;;;;;;33.58;17.85;;;4.30;99.90;;;;;;5049431;28;20175;-51
2022/12/19 10:20:31;;;;;;;34.45;17.13;;;4.40;99.90;;;;;;5050418;28;20170;-47
2022/12/19 10:23:20;;;;;;;38.95;17.00;;;4.30;99.90;;;;;;5050266;28;20221;-48
2022/12/19 10:25:59;;;;;;;40.50;19.40;;;4.20;99.90;;;;;;5050293;28;20162;-52
2022/12/19 10:28:36;;;;;;;32.20;18.63;;;4.40;99.90;;;;;;5050274;28;20177;-47
2022/12/19 10:31:17;;;;;;;33.78;19.35;;;4.30;99.90;;;;;;5050470;28;20186;-50
2022/12/19 10:34:00;;;;;;;34.35;18.95;;;4.40;99.90;;;;;;5049961;28;20182;-46
2022/12/19 10:36:28;;;;;;;38.95;18.80;;;4.30;99.90;;;;;;5050377;28;20167;-50
2022/12/19 10:39:07;;;;;;;57.75;26.88;;;4.30;99.90;;;;;;5050156;28;20175;-47
2022/12/19 10:41:33;;;;;;;33.28;18.73;;;4.30;99.90;;;;;;5050325;28;20171;-45
2022/12/19 10:44:09;;;;;;;49.45;26.05;;;4.40;99.90;;;;;;5049933;28;20197;-49
2022/12/19 10:46:46;;;;;;;44.97;22.40;;;4.40;99.90;;;;;;5050029;28;20162;-49
2022/12/19 10:49:17;;;;;;;38.30;21.00;;;4.40;99.90;;;;;;5050000;28;20179;-46
2022/12/19 10:51:55;;;;;;;47.85;24.52;;;4.30;99.90;;;;;;5049799;28;20263;-46
2022/12/19 10:54:36;;;;;;;76.13;35.35;;;4.30;99.90;;;;;;5050176;28;20174;-45
2022/12/19 10:57:23;;;;;;;48.85;24.52;;;4.30;99.90;;;;;;5049712;28;20271;-48
2022/12/19 11:00:08;;;;;;;63.75;30.42;;;4.50;99.90;;;;;;5050401;28;20526;-46
2022/12/19 11:02:34;;;;;;;60.13;29.40;;;4.40;99.90;;;;;;5049539;28;20360;-44
2022/12/19 11:05:00;;;;;;;53.38;25.90;;;4.50;99.90;;;;;;5049883;28;20939;-47
2022/12/19 11:07:26;;;;;;;47.80;24.25;;;4.40;99.90;;;;;;5049764;28;20537;-47
2022/12/19 11:09:51;;;;;;;45.85;24.08;;;4.50;99.90;;;;;;5050130;28;20249;-49
2022/12/19 11:12:18;;;;;;;38.28;19.88;;;4.40;99.90;;;;;;5049576;28;20214;-49
2022/12/19 11:14:53;;;;;;;49.03;26.10;;;4.40;99.90;;;;;;5049723;28;20170;-47
2022/12/19 11:17:35;;;;;;;43.85;27.58;;;4.50;99.90;;;;;;5049317;28;20412;-45
2022/12/19 11:20:19;;;;;;;38.05;21.95;;;4.50;99.90;;;;;;5049875;28;20179;-46
2022/12/19 11:22:52;;;;;;;35.63;20.95;;;4.50;99.90;;;;;;5049526;28;20253;-45
2022/12/19 11:25:21;;;;;;;36.10;20.50;;;4.50;99.90;;;;;;5050252;28;20170;-46
2022/12/19 11:27:50;;;;;;;40.42;23.67;;;4.60;99.90;;;;;;5049602;28;20228;-47
2022/12/19 11:30:21;;;;;;;35.58;17.52;;;4.60;99.90;;;;;;5049454;28;20167;-44
2022/12/19 11:33:05;;;;;;;30.48;16.85;;;4.60;99.90;;;;;;5049730;28;20217;-44
2022/12/19 11:35:31;;;;;;;30.92;17.25;;;4.80;99.90;;;;;;5049663;28;20171;-44
2022/12/19 11:38:00;;;;;;;34.20;18.52;;;4.80;99.90;;;;;;5049205;28;20220;-45
2022/12/19 11:40:40;;;;;;;37.28;19.10;;;4.70;99.90;;;;;;5049396;28;20225;-44
2022/12/19 11:43:28;;;;;;;30.02;18.05;;;4.90;99.90;;;;;;5049469;28;20166;-44
2022/12/19 11:46:33;;;;;;;29.73;17.35;;;4.90;99.90;;;;;;5049400;28;20241;-46
2022/12/19 11:49:24;;;;;;;32.78;17.48;;;4.80;99.90;;;;;;5049814;28;20174;-43
2022/12/19 11:52:17;;;;;;;33.40;18.42;;;5.00;99.90;;;;;;5049794;28;20570;-46
2022/12/19 11:54:59;;;;;;;27.52;15.45;;;5.00;99.90;;;;;;5049521;28;20178;-44
2022/12/19 11:57:26;;;;;;;30.63;16.48;;;5.00;99.90;;;;;;5049383;28;20202;-44
2022/12/19 11:59:52;;;;;;;30.67;16.65;;;5.00;99.90;;;;;;5049679;28;20666;-46
2022/12/19 12:02:43;;;;;;;28.88;16.48;;;5.00;99.90;;;;;;5049191;28;20272;-42
2022/12/19 12:05:46;;;;;;;25.65;16.40;;;5.10;99.90;;;;;;5048765;28;20599;-43
2022/12/19 12:08:23;;;;;;;29.17;17.23;;;5.10;99.90;;;;;;5051459;28;20539;-43
2022/12/19 12:11:16;;;;;;;29.75;16.35;;;5.10;99.90;;;;;;5053299;28;20246;-43
2022/12/19 12:14:13;;;;;;;26.23;16.17;;;5.20;99.90;;;;;;5052698;28;20249;-45
2022/12/19 12:16:50;;;;;;;31.38;16.42;;;5.20;99.90;;;;;;5052088;28;20178;-49
2022/12/19 12:19:30;;;;;;;33.25;17.08;;;5.30;99.90;;;;;;5052460;28;20175;-51
2022/12/19 12:22:11;;;;;;;30.70;16.38;;;5.30;99.90;;;;;;5052508;28;20253;-46
2022/12/19 12:24:58;;;;;;;28.85;16.17;;;5.40;99.90;;;;;;5052485;28;20163;-50
2022/12/19 12:28:02;;;;;;;30.85;16.55;;;5.40;99.90;;;;;;5052433;28;20167;-49
2022/12/19 12:30:42;;;;;;;30.55;17.25;;;5.40;99.90;;;;;;5051022;28;20260;-49
2022/12/19 12:33:13;;;;;;;30.70;16.05;;;5.30;99.90;;;;;;5051641;28;20725;-43
2022/12/19 12:35:48;;;;;;;27.80;15.60;;;5.30;99.90;;;;;;5052279;28;20166;-43
2022/12/19 12:38:32;;;;;;;29.92;16.33;;;5.40;99.90;;;;;;5051938;28;20180;-43
2022/12/19 12:41:16;;;;;;;25.55;16.70;;;5.30;99.90;;;;;;5052018;28;20622;-44
2022/12/19 12:44:10;;;;;;;23.23;14.95;;;5.30;99.90;;;;;;5052267;28;20186;-44
2022/12/19 12:46:45;;;;;;;30.73;16.83;;;5.30;99.90;;;;;;5052258;28;20229;-44
2022/12/19 12:49:33;;;;;;;23.85;14.65;;;5.20;99.90;;;;;;5051694;28;20626;-42
2022/12/19 12:52:00;;;;;;;30.42;17.65;;;5.30;99.90;;;;;;5051940;28;20233;-42
2022/12/19 12:54:33;;;;;;;28.70;16.75;;;5.20;99.90;;;;;;5051805;28;20805;-42
2022/12/19 12:56:59;;;;;;;28.02;16.92;;;5.20;99.90;;;;;;5052096;28;20175;-43
2022/12/19 12:59:29;;;;;;;32.22;19.13;;;5.20;99.90;;;;;;5051921;28;20240;-42
2022/12/19 13:02:15;;;;;;;39.55;21.73;;;5.20;99.90;;;;;;5051538;28;20210;-42